sensor_id;sensor_type;location;lat;lon;timestamp;P1;durP1;ratioP1;P2;durP2;ratioP2
23988;SDS011;12202;52.136;5.592;2023-03-30T00:01:01;22.48;;;9.45;;
23988;SDS011;12202;52.136;5.592;2023-03-30T00:03:27;19.67;;;10.57;;
23988;SDS011;12202;52.136;5.592;2023-03-30T00:05:54;18.02;;;9.02;;
23988;SDS011;12202;52.136;5.592;2023-03-30T00:08:23;21.92;;;9.20;;
23988;SDS011;12202;52.136;5.592;2023-03-30T00:10:59;22.77;;;9.48;;
23988;SDS011;12202;52.136;5.592;2023-03-30T00:13:26;16.80;;;8.90;;
23988;SDS011;12202;52.136;5.592;2023-03-30T00:15:52;21.00;;;9.75;;
23988;SDS011;12202;52.136;5.592;2023-03-30T00:18:18;20.20;;;8.75;;
23988;SDS011;12202;52.136;5.592;2023-03-30T00:20:47;15.48;;;8.73;;
23988;SDS011;12202;52.136;5.592;2023-03-30T00:23:13;15.95;;;8.48;;
23988;SDS011;12202;52.136;5.592;2023-03-30T00:25:40;14.10;;;8.25;;
23988;SDS011;12202;52.136;5.592;2023-03-30T00:28:06;18.65;;;9.02;;
23988;SDS011;12202;52.136;5.592;2023-03-30T00:30:33;17.67;;;8.77;;
23988;SDS011;12202;52.136;5.592;2023-03-30T00:33:01;16.15;;;7.97;;
23988;SDS011;12202;52.136;5.592;2023-03-30T00:35:27;20.02;;;9.10;;
23988;SDS011;12202;52.136;5.592;2023-03-30T00:37:54;17.23;;;8.70;;
23988;SDS011;12202;52.136;5.592;2023-03-30T00:40:20;15.88;;;8.55;;
23988;SDS011;12202;52.136;5.592;2023-03-30T00:42:47;19.80;;;8.88;;
23988;SDS011;12202;52.136;5.592;2023-03-30T00:45:23;16.95;;;8.45;;
23988;SDS011;12202;52.136;5.592;2023-03-30T00:50:23;17.48;;;8.60;;
23988;SDS011;12202;52.136;5.592;2023-03-30T00:52:51;15.88;;;8.40;;
23988;SDS011;12202;52.136;5.592;2023-03-30T00:55:17;16.73;;;8.57;;
23988;SDS011;12202;52.136;5.592;2023-03-30T00:57:45;18.02;;;8.48;;
23988;SDS011;12202;52.136;5.592;2023-03-30T01:00:12;20.88;;;8.38;;
23988;SDS011;12202;52.136;5.592;2023-03-30T01:02:43;13.32;;;8.50;;
23988;SDS011;12202;52.136;5.592;2023-03-30T01:05:10;16.83;;;8.20;;
23988;SDS011;12202;52.136;5.592;2023-03-30T01:07:37;12.57;;;7.50;;
23988;SDS011;12202;52.136;5.592;2023-03-30T01:10:04;12.40;;;6.60;;
23988;SDS011;12202;52.136;5.592;2023-03-30T01:12:30;13.63;;;6.75;;
23988;SDS011;12202;52.136;5.592;2023-03-30T01:14:56;17.33;;;6.13;;
23988;SDS011;12202;52.136;5.592;2023-03-30T01:17:25;13.38;;;6.15;;
23988;SDS011;12202;52.136;5.592;2023-03-30T01:25:29;14.25;;;6.13;;
23988;SDS011;12202;52.136;5.592;2023-03-30T01:30:43;12.48;;;5.97;;
23988;SDS011;12202;52.136;5.592;2023-03-30T01:38:23;11.25;;;5.80;;
23988;SDS011;12202;52.136;5.592;2023-03-30T01:43:51;11.18;;;5.25;;
23988;SDS011;12202;52.136;5.592;2023-03-30T01:47:05;9.15;;;5.13;;
23988;SDS011;12202;52.136;5.592;2023-03-30T01:49:13;12.10;;;5.38;;
23988;SDS011;12202;52.136;5.592;2023-03-30T01:51:46;14.00;;;7.47;;
23988;SDS011;12202;52.136;5.592;2023-03-30T01:54:16;19.08;;;6.13;;
23988;SDS011;12202;52.136;5.592;2023-03-30T01:56:47;14.35;;;6.13;;
23988;SDS011;12202;52.136;5.592;2023-03-30T01:59:22;14.85;;;5.70;;
23988;SDS011;12202;52.136;5.592;2023-03-30T02:01:49;13.77;;;6.22;;
23988;SDS011;12202;52.136;5.592;2023-03-30T02:04:18;17.92;;;6.40;;
23988;SDS011;12202;52.136;5.592;2023-03-30T02:06:47;14.00;;;5.20;;
23988;SDS011;12202;52.136;5.592;2023-03-30T02:09:15;13.35;;;5.93;;
23988;SDS011;12202;52.136;5.592;2023-03-30T02:11:43;9.10;;;5.78;;
23988;SDS011;12202;52.136;5.592;2023-03-30T02:14:10;12.23;;;5.57;;
23988;SDS011;12202;52.136;5.592;2023-03-30T02:16:39;22.08;;;6.50;;
23988;SDS011;12202;52.136;5.592;2023-03-30T02:19:06;14.27;;;5.60;;
23988;SDS011;12202;52.136;5.592;2023-03-30T02:21:32;9.88;;;4.25;;
23988;SDS011;12202;52.136;5.592;2023-03-30T02:23:59;14.80;;;6.00;;
23988;SDS011;12202;52.136;5.592;2023-03-30T02:26:27;12.88;;;5.25;;
23988;SDS011;12202;52.136;5.592;2023-03-30T02:31:58;8.27;;;4.88;;
23988;SDS011;12202;52.136;5.592;2023-03-30T02:50:36;11.93;;;4.97;;
23988;SDS011;12202;52.136;5.592;2023-03-30T03:00:48;9.38;;;4.65;;
23988;SDS011;12202;52.136;5.592;2023-03-30T03:03:18;14.63;;;5.32;;
23988;SDS011;12202;52.136;5.592;2023-03-30T03:05:45;14.40;;;5.38;;
23988;SDS011;12202;52.136;5.592;2023-03-30T03:08:14;14.35;;;4.85;;
23988;SDS011;12202;52.136;5.592;2023-03-30T03:10:42;12.43;;;4.20;;
23988;SDS011;12202;52.136;5.592;2023-03-30T03:13:08;9.00;;;4.07;;
23988;SDS011;12202;52.136;5.592;2023-03-30T03:15:35;14.60;;;3.60;;
23988;SDS011;12202;52.136;5.592;2023-03-30T03:18:02;8.65;;;3.50;;
23988;SDS011;12202;52.136;5.592;2023-03-30T03:20:28;9.20;;;3.50;;
23988;SDS011;12202;52.136;5.592;2023-03-30T03:22:55;9.45;;;3.50;;
23988;SDS011;12202;52.136;5.592;2023-03-30T03:25:24;14.63;;;4.18;;
23988;SDS011;12202;52.136;5.592;2023-03-30T03:27:51;10.27;;;3.65;;
23988;SDS011;12202;52.136;5.592;2023-03-30T03:30:17;15.15;;;3.83;;
23988;SDS011;12202;52.136;5.592;2023-03-30T03:32:42;11.60;;;3.35;;
23988;SDS011;12202;52.136;5.592;2023-03-30T03:35:08;7.90;;;3.40;;
23988;SDS011;12202;52.136;5.592;2023-03-30T03:37:35;18.05;;;3.92;;
23988;SDS011;12202;52.136;5.592;2023-03-30T03:40:00;13.27;;;3.58;;
23988;SDS011;12202;52.136;5.592;2023-03-30T03:42:29;7.93;;;3.13;;
23988;SDS011;12202;52.136;5.592;2023-03-30T03:44:55;12.93;;;3.10;;
23988;SDS011;12202;52.136;5.592;2023-03-30T03:47:21;10.20;;;3.33;;
23988;SDS011;12202;52.136;5.592;2023-03-30T03:49:47;6.63;;;3.13;;
23988;SDS011;12202;52.136;5.592;2023-03-30T03:52:13;9.45;;;2.95;;
23988;SDS011;12202;52.136;5.592;2023-03-30T03:54:39;13.20;;;3.53;;
23988;SDS011;12202;52.136;5.592;2023-03-30T03:57:05;12.48;;;3.28;;
23988;SDS011;12202;52.136;5.592;2023-03-30T03:59:31;10.27;;;3.10;;
23988;SDS011;12202;52.136;5.592;2023-03-30T04:01:57;9.85;;;3.50;;
23988;SDS011;12202;52.136;5.592;2023-03-30T04:04:24;15.93;;;3.47;;
23988;SDS011;12202;52.136;5.592;2023-03-30T04:06:50;10.65;;;3.10;;
23988;SDS011;12202;52.136;5.592;2023-03-30T04:09:16;12.88;;;3.17;;
23988;SDS011;12202;52.136;5.592;2023-03-30T04:11:43;10.98;;;3.22;;
23988;SDS011;12202;52.136;5.592;2023-03-30T04:14:09;11.45;;;4.07;;
23988;SDS011;12202;52.136;5.592;2023-03-30T04:16:35;10.35;;;3.13;;
23988;SDS011;12202;52.136;5.592;2023-03-30T04:19:01;13.23;;;3.10;;
23988;SDS011;12202;52.136;5.592;2023-03-30T04:21:28;9.95;;;2.50;;
23988;SDS011;12202;52.136;5.592;2023-03-30T04:23:54;9.77;;;3.80;;
23988;SDS011;12202;52.136;5.592;2023-03-30T04:26:21;9.05;;;2.78;;
23988;SDS011;12202;52.136;5.592;2023-03-30T04:28:47;5.95;;;3.28;;
23988;SDS011;12202;52.136;5.592;2023-03-30T04:31:13;11.88;;;3.38;;
23988;SDS011;12202;52.136;5.592;2023-03-30T04:33:40;10.55;;;2.65;;
23988;SDS011;12202;52.136;5.592;2023-03-30T04:36:15;6.53;;;2.55;;
23988;SDS011;12202;52.136;5.592;2023-03-30T04:38:44;10.20;;;2.80;;
23988;SDS011;12202;52.136;5.592;2023-03-30T04:41:31;7.15;;;2.50;;
23988;SDS011;12202;52.136;5.592;2023-03-30T04:43:59;11.18;;;3.03;;
23988;SDS011;12202;52.136;5.592;2023-03-30T04:46:25;7.18;;;2.50;;
23988;SDS011;12202;52.136;5.592;2023-03-30T04:48:51;9.68;;;3.03;;
23988;SDS011;12202;52.136;5.592;2023-03-30T04:51:17;11.13;;;2.75;;
23988;SDS011;12202;52.136;5.592;2023-03-30T04:53:43;9.63;;;2.95;;
23988;SDS011;12202;52.136;5.592;2023-03-30T04:56:09;9.23;;;3.28;;
23988;SDS011;12202;52.136;5.592;2023-03-30T04:58:35;11.50;;;3.60;;
23988;SDS011;12202;52.136;5.592;2023-03-30T05:01:02;11.45;;;3.40;;
23988;SDS011;12202;52.136;5.592;2023-03-30T05:03:28;7.97;;;3.35;;
23988;SDS011;12202;52.136;5.592;2023-03-30T05:05:55;6.13;;;3.05;;
23988;SDS011;12202;52.136;5.592;2023-03-30T05:08:21;14.35;;;3.42;;
23988;SDS011;12202;52.136;5.592;2023-03-30T05:10:47;17.48;;;3.90;;
23988;SDS011;12202;52.136;5.592;2023-03-30T05:13:13;9.40;;;3.90;;
23988;SDS011;12202;52.136;5.592;2023-03-30T05:15:39;13.70;;;4.00;;
23988;SDS011;12202;52.136;5.592;2023-03-30T05:18:05;23.77;;;5.47;;
23988;SDS011;12202;52.136;5.592;2023-03-30T05:20:31;11.50;;;4.43;;
23988;SDS011;12202;52.136;5.592;2023-03-30T05:23:00;33.70;;;6.28;;
23988;SDS011;12202;52.136;5.592;2023-03-30T05:25:26;12.02;;;5.40;;
23988;SDS011;12202;52.136;5.592;2023-03-30T05:27:52;9.63;;;4.30;;
23988;SDS011;12202;52.136;5.592;2023-03-30T05:30:18;14.00;;;4.82;;
23988;SDS011;12202;52.136;5.592;2023-03-30T05:32:44;14.70;;;5.47;;
23988;SDS011;12202;52.136;5.592;2023-03-30T05:35:11;17.30;;;4.95;;
23988;SDS011;12202;52.136;5.592;2023-03-30T05:37:37;11.90;;;5.00;;
23988;SDS011;12202;52.136;5.592;2023-03-30T05:40:03;14.25;;;5.43;;
23988;SDS011;12202;52.136;5.592;2023-03-30T05:42:46;21.00;;;5.90;;
23988;SDS011;12202;52.136;5.592;2023-03-30T05:45:12;12.65;;;5.43;;
23988;SDS011;12202;52.136;5.592;2023-03-30T05:47:38;13.32;;;5.70;;
23988;SDS011;12202;52.136;5.592;2023-03-30T05:50:04;17.42;;;6.40;;
23988;SDS011;12202;52.136;5.592;2023-03-30T05:52:32;14.27;;;5.35;;
23988;SDS011;12202;52.136;5.592;2023-03-30T05:54:58;10.70;;;5.20;;
23988;SDS011;12202;52.136;5.592;2023-03-30T05:57:24;16.27;;;6.93;;
23988;SDS011;12202;52.136;5.592;2023-03-30T05:59:50;18.13;;;6.32;;
23988;SDS011;12202;52.136;5.592;2023-03-30T06:02:16;23.30;;;6.43;;
23988;SDS011;12202;52.136;5.592;2023-03-30T06:04:43;17.38;;;6.13;;
23988;SDS011;12202;52.136;5.592;2023-03-30T06:07:10;22.55;;;6.70;;
23988;SDS011;12202;52.136;5.592;2023-03-30T06:09:36;24.33;;;6.10;;
23988;SDS011;12202;52.136;5.592;2023-03-30T06:12:02;24.45;;;7.07;;
23988;SDS011;12202;52.136;5.592;2023-03-30T06:14:28;21.55;;;5.93;;
23988;SDS011;12202;52.136;5.592;2023-03-30T06:16:54;24.42;;;6.05;;
23988;SDS011;12202;52.136;5.592;2023-03-30T06:19:21;25.60;;;6.60;;
23988;SDS011;12202;52.136;5.592;2023-03-30T06:21:47;21.88;;;6.22;;
23988;SDS011;12202;52.136;5.592;2023-03-30T06:24:13;19.77;;;6.18;;
23988;SDS011;12202;52.136;5.592;2023-03-30T06:26:39;23.23;;;6.75;;
23988;SDS011;12202;52.136;5.592;2023-03-30T06:29:05;19.98;;;7.18;;
23988;SDS011;12202;52.136;5.592;2023-03-30T06:31:31;18.77;;;6.70;;
23988;SDS011;12202;52.136;5.592;2023-03-30T06:33:57;20.65;;;6.22;;
23988;SDS011;12202;52.136;5.592;2023-03-30T06:36:23;22.80;;;6.65;;
23988;SDS011;12202;52.136;5.592;2023-03-30T06:38:50;23.25;;;6.25;;
23988;SDS011;12202;52.136;5.592;2023-03-30T06:41:16;25.17;;;6.82;;
23988;SDS011;12202;52.136;5.592;2023-03-30T06:43:42;22.55;;;7.00;;
23988;SDS011;12202;52.136;5.592;2023-03-30T06:46:08;22.42;;;6.35;;
23988;SDS011;12202;52.136;5.592;2023-03-30T06:48:36;28.27;;;6.20;;
23988;SDS011;12202;52.136;5.592;2023-03-30T06:51:02;17.83;;;5.45;;
23988;SDS011;12202;52.136;5.592;2023-03-30T06:53:29;19.73;;;6.05;;
23988;SDS011;12202;52.136;5.592;2023-03-30T06:55:56;31.83;;;6.60;;
23988;SDS011;12202;52.136;5.592;2023-03-30T06:58:25;34.60;;;7.10;;
23988;SDS011;12202;52.136;5.592;2023-03-30T07:00:52;22.42;;;5.57;;
23988;SDS011;12202;52.136;5.592;2023-03-30T07:03:18;42.13;;;6.72;;
23988;SDS011;12202;52.136;5.592;2023-03-30T07:05:47;33.95;;;7.40;;
23988;SDS011;12202;52.136;5.592;2023-03-30T07:08:13;29.42;;;6.85;;
23988;SDS011;12202;52.136;5.592;2023-03-30T07:10:43;26.02;;;4.85;;
23988;SDS011;12202;52.136;5.592;2023-03-30T07:13:11;28.00;;;5.05;;
23988;SDS011;12202;52.136;5.592;2023-03-30T07:15:37;41.55;;;6.10;;
23988;SDS011;12202;52.136;5.592;2023-03-30T07:18:03;26.70;;;5.80;;
23988;SDS011;12202;52.136;5.592;2023-03-30T07:20:29;29.73;;;5.10;;
23988;SDS011;12202;52.136;5.592;2023-03-30T07:22:55;36.08;;;6.55;;
23988;SDS011;12202;52.136;5.592;2023-03-30T07:25:21;17.90;;;4.30;;
23988;SDS011;12202;52.136;5.592;2023-03-30T07:27:47;29.00;;;5.30;;
23988;SDS011;12202;52.136;5.592;2023-03-30T07:30:13;24.20;;;5.57;;
23988;SDS011;12202;52.136;5.592;2023-03-30T07:32:39;27.77;;;5.47;;
23988;SDS011;12202;52.136;5.592;2023-03-30T07:35:05;24.00;;;5.18;;
23988;SDS011;12202;52.136;5.592;2023-03-30T07:37:33;40.85;;;8.05;;
23988;SDS011;12202;52.136;5.592;2023-03-30T07:39:59;26.95;;;5.20;;
23988;SDS011;12202;52.136;5.592;2023-03-30T07:42:27;29.52;;;6.43;;
23988;SDS011;12202;52.136;5.592;2023-03-30T07:44:53;28.05;;;5.97;;
23988;SDS011;12202;52.136;5.592;2023-03-30T07:47:19;35.92;;;6.57;;
23988;SDS011;12202;52.136;5.592;2023-03-30T07:49:45;42.22;;;7.25;;
23988;SDS011;12202;52.136;5.592;2023-03-30T07:52:11;30.85;;;5.88;;
23988;SDS011;12202;52.136;5.592;2023-03-30T07:54:38;21.52;;;5.68;;
23988;SDS011;12202;52.136;5.592;2023-03-30T07:57:07;22.85;;;6.50;;
23988;SDS011;12202;52.136;5.592;2023-03-30T07:59:33;33.03;;;7.70;;
23988;SDS011;12202;52.136;5.592;2023-03-30T08:01:59;28.10;;;7.18;;
23988;SDS011;12202;52.136;5.592;2023-03-30T08:04:25;37.08;;;6.63;;
23988;SDS011;12202;52.136;5.592;2023-03-30T08:06:51;31.80;;;6.88;;
23988;SDS011;12202;52.136;5.592;2023-03-30T08:09:18;33.08;;;6.65;;
23988;SDS011;12202;52.136;5.592;2023-03-30T08:11:44;30.17;;;6.68;;
23988;SDS011;12202;52.136;5.592;2023-03-30T08:14:10;35.75;;;6.30;;
23988;SDS011;12202;52.136;5.592;2023-03-30T08:16:36;29.17;;;6.50;;
23988;SDS011;12202;52.136;5.592;2023-03-30T08:19:02;30.48;;;6.15;;
23988;SDS011;12202;52.136;5.592;2023-03-30T08:21:28;30.60;;;7.20;;
23988;SDS011;12202;52.136;5.592;2023-03-30T08:23:54;37.83;;;10.85;;
23988;SDS011;12202;52.136;5.592;2023-03-30T08:26:23;37.10;;;6.20;;
23988;SDS011;12202;52.136;5.592;2023-03-30T08:28:50;21.77;;;5.68;;
23988;SDS011;12202;52.136;5.592;2023-03-30T08:31:19;34.08;;;8.00;;
23988;SDS011;12202;52.136;5.592;2023-03-30T08:33:46;27.95;;;5.65;;
23988;SDS011;12202;52.136;5.592;2023-03-30T08:36:12;38.92;;;6.95;;
23988;SDS011;12202;52.136;5.592;2023-03-30T08:38:39;40.90;;;7.82;;
23988;SDS011;12202;52.136;5.592;2023-03-30T08:43:50;39.10;;;8.07;;
23988;SDS011;12202;52.136;5.592;2023-03-30T08:46:17;47.63;;;7.55;;
23988;SDS011;12202;52.136;5.592;2023-03-30T08:48:44;29.38;;;6.47;;
23988;SDS011;12202;52.136;5.592;2023-03-30T08:51:19;35.53;;;7.80;;
23988;SDS011;12202;52.136;5.592;2023-03-30T08:53:47;28.08;;;6.13;;
23988;SDS011;12202;52.136;5.592;2023-03-30T08:56:25;42.42;;;7.78;;
23988;SDS011;12202;52.136;5.592;2023-03-30T09:09:29;35.55;;;6.45;;
23988;SDS011;12202;52.136;5.592;2023-03-30T09:12:07;40.22;;;7.57;;
23988;SDS011;12202;52.136;5.592;2023-03-30T09:14:36;35.15;;;6.50;;
23988;SDS011;12202;52.136;5.592;2023-03-30T09:19:50;36.25;;;6.82;;
23988;SDS011;12202;52.136;5.592;2023-03-30T09:22:24;31.40;;;5.85;;
23988;SDS011;12202;52.136;5.592;2023-03-30T09:24:52;34.17;;;6.25;;
23988;SDS011;12202;52.136;5.592;2023-03-30T09:27:25;31.67;;;7.38;;
23988;SDS011;12202;52.136;5.592;2023-03-30T09:30:42;29.83;;;5.75;;
23988;SDS011;12202;52.136;5.592;2023-03-30T09:35:56;29.27;;;6.30;;
23988;SDS011;12202;52.136;5.592;2023-03-30T09:38:30;32.92;;;5.45;;
23988;SDS011;12202;52.136;5.592;2023-03-30T09:41:05;43.58;;;8.23;;
23988;SDS011;12202;52.136;5.592;2023-03-30T09:43:39;33.08;;;5.90;;
23988;SDS011;12202;52.136;5.592;2023-03-30T09:46:10;33.47;;;6.47;;
23988;SDS011;12202;52.136;5.592;2023-03-30T09:48:40;40.05;;;6.78;;
23988;SDS011;12202;52.136;5.592;2023-03-30T09:51:17;40.15;;;6.10;;
23988;SDS011;12202;52.136;5.592;2023-03-30T09:53:44;37.28;;;5.70;;
23988;SDS011;12202;52.136;5.592;2023-03-30T09:58:55;25.80;;;5.72;;
23988;SDS011;12202;52.136;5.592;2023-03-30T10:01:21;43.75;;;7.28;;
23988;SDS011;12202;52.136;5.592;2023-03-30T10:04:06;37.65;;;9.45;;
23988;SDS011;12202;52.136;5.592;2023-03-30T10:06:49;38.67;;;6.50;;
23988;SDS011;12202;52.136;5.592;2023-03-30T10:09:16;32.13;;;6.03;;
23988;SDS011;12202;52.136;5.592;2023-03-30T10:11:43;38.20;;;7.20;;
23988;SDS011;12202;52.136;5.592;2023-03-30T10:16:56;29.48;;;5.50;;
23988;SDS011;12202;52.136;5.592;2023-03-30T10:19:23;40.30;;;6.10;;
23988;SDS011;12202;52.136;5.592;2023-03-30T10:21:53;46.90;;;6.80;;
23988;SDS011;12202;52.136;5.592;2023-03-30T10:24:21;31.52;;;6.18;;
23988;SDS011;12202;52.136;5.592;2023-03-30T10:26:52;50.88;;;6.78;;
23988;SDS011;12202;52.136;5.592;2023-03-30T10:29:30;36.00;;;6.00;;
23988;SDS011;12202;52.136;5.592;2023-03-30T10:31:57;44.88;;;7.75;;
23988;SDS011;12202;52.136;5.592;2023-03-30T10:34:39;45.35;;;5.63;;
23988;SDS011;12202;52.136;5.592;2023-03-30T10:37:08;34.25;;;5.60;;
23988;SDS011;12202;52.136;5.592;2023-03-30T10:39:37;31.63;;;5.50;;
23988;SDS011;12202;52.136;5.592;2023-03-30T10:42:04;45.90;;;6.75;;
23988;SDS011;12202;52.136;5.592;2023-03-30T10:52:56;39.35;;;7.68;;
23988;SDS011;12202;52.136;5.592;2023-03-30T11:01:11;47.97;;;6.18;;
23988;SDS011;12202;52.136;5.592;2023-03-30T11:03:15;50.47;;;7.80;;
23988;SDS011;12202;52.136;5.592;2023-03-30T11:05:45;37.45;;;6.13;;
23988;SDS011;12202;52.136;5.592;2023-03-30T11:10:48;36.22;;;6.40;;
23988;SDS011;12202;52.136;5.592;2023-03-30T11:13:21;51.90;;;7.72;;
23988;SDS011;12202;52.136;5.592;2023-03-30T11:15:49;49.45;;;6.30;;
23988;SDS011;12202;52.136;5.592;2023-03-30T11:21:02;32.60;;;5.53;;
23988;SDS011;12202;52.136;5.592;2023-03-30T11:23:36;43.35;;;6.38;;
23988;SDS011;12202;52.136;5.592;2023-03-30T11:26:07;38.58;;;5.07;;
23988;SDS011;12202;52.136;5.592;2023-03-30T11:31:10;49.63;;;7.20;;
23988;SDS011;12202;52.136;5.592;2023-03-30T11:33:41;36.47;;;5.85;;
23988;SDS011;12202;52.136;5.592;2023-03-30T11:36:12;38.10;;;6.90;;
23988;SDS011;12202;52.136;5.592;2023-03-30T11:38:48;34.38;;;6.32;;
23988;SDS011;12202;52.136;5.592;2023-03-30T11:41:18;26.10;;;4.85;;
23988;SDS011;12202;52.136;5.592;2023-03-30T11:43:44;35.35;;;5.65;;
23988;SDS011;12202;52.136;5.592;2023-03-30T11:59:43;33.35;;;5.40;;
23988;SDS011;12202;52.136;5.592;2023-03-30T12:02:14;30.52;;;5.63;;
23988;SDS011;12202;52.136;5.592;2023-03-30T12:04:44;39.53;;;6.80;;
23988;SDS011;12202;52.136;5.592;2023-03-30T12:07:26;51.88;;;6.97;;
23988;SDS011;12202;52.136;5.592;2023-03-30T12:09:55;35.90;;;5.32;;
23988;SDS011;12202;52.136;5.592;2023-03-30T12:12:34;42.33;;;6.35;;
23988;SDS011;12202;52.136;5.592;2023-03-30T12:27:24;32.25;;;4.80;;
23988;SDS011;12202;52.136;5.592;2023-03-30T12:29:51;37.72;;;5.15;;
23988;SDS011;12202;52.136;5.592;2023-03-30T12:32:20;40.72;;;6.90;;
23988;SDS011;12202;52.136;5.592;2023-03-30T12:34:46;37.45;;;5.50;;
23988;SDS011;12202;52.136;5.592;2023-03-30T12:39:54;38.08;;;6.00;;
23988;SDS011;12202;52.136;5.592;2023-03-30T12:42:30;34.83;;;5.72;;
23988;SDS011;12202;52.136;5.592;2023-03-30T12:57:42;44.10;;;6.38;;
23988;SDS011;12202;52.136;5.592;2023-03-30T13:06:20;27.65;;;4.65;;
23988;SDS011;12202;52.136;5.592;2023-03-30T13:08:46;28.00;;;4.47;;
23988;SDS011;12202;52.136;5.592;2023-03-30T13:11:19;39.92;;;6.35;;
23988;SDS011;12202;52.136;5.592;2023-03-30T13:19:08;36.88;;;5.30;;
23988;SDS011;12202;52.136;5.592;2023-03-30T13:21:46;36.40;;;5.82;;
23988;SDS011;12202;52.136;5.592;2023-03-30T13:27:19;37.03;;;6.05;;
23988;SDS011;12202;52.136;5.592;2023-03-30T13:35:21;44.90;;;6.22;;
23988;SDS011;12202;52.136;5.592;2023-03-30T13:41:13;45.17;;;6.97;;
23988;SDS011;12202;52.136;5.592;2023-03-30T13:51:17;49.78;;;7.82;;
23988;SDS011;12202;52.136;5.592;2023-03-30T13:53:49;39.83;;;6.40;;
23988;SDS011;12202;52.136;5.592;2023-03-30T13:56:16;49.70;;;7.13;;
23988;SDS011;12202;52.136;5.592;2023-03-30T13:58:56;53.13;;;9.43;;
23988;SDS011;12202;52.136;5.592;2023-03-30T14:01:25;42.72;;;8.57;;
23988;SDS011;12202;52.136;5.592;2023-03-30T14:03:55;38.63;;;6.18;;
23988;SDS011;12202;52.136;5.592;2023-03-30T14:06:31;45.08;;;7.90;;
23988;SDS011;12202;52.136;5.592;2023-03-30T14:14:05;36.72;;;5.80;;
23988;SDS011;12202;52.136;5.592;2023-03-30T14:16:34;37.13;;;6.53;;
23988;SDS011;12202;52.136;5.592;2023-03-30T14:19:18;33.70;;;5.43;;
23988;SDS011;12202;52.136;5.592;2023-03-30T14:21:45;50.88;;;6.55;;
23988;SDS011;12202;52.136;5.592;2023-03-30T14:24:19;36.38;;;5.35;;
23988;SDS011;12202;52.136;5.592;2023-03-30T14:27:06;40.90;;;7.03;;
23988;SDS011;12202;52.136;5.592;2023-03-30T14:29:46;29.42;;;6.00;;
23988;SDS011;12202;52.136;5.592;2023-03-30T14:32:13;37.90;;;5.20;;
23988;SDS011;12202;52.136;5.592;2023-03-30T14:34:44;34.45;;;5.53;;
23988;SDS011;12202;52.136;5.592;2023-03-30T14:37:10;32.92;;;4.68;;
23988;SDS011;12202;52.136;5.592;2023-03-30T14:39:41;37.10;;;5.47;;
23988;SDS011;12202;52.136;5.592;2023-03-30T14:44:39;29.83;;;5.45;;
23988;SDS011;12202;52.136;5.592;2023-03-30T14:47:05;29.67;;;4.63;;
23988;SDS011;12202;52.136;5.592;2023-03-30T14:49:35;30.70;;;4.95;;
23988;SDS011;12202;52.136;5.592;2023-03-30T14:52:08;31.75;;;4.68;;
23988;SDS011;12202;52.136;5.592;2023-03-30T14:54:38;26.13;;;5.80;;
23988;SDS011;12202;52.136;5.592;2023-03-30T14:57:05;27.60;;;4.65;;
23988;SDS011;12202;52.136;5.592;2023-03-30T14:59:34;30.88;;;7.15;;
23988;SDS011;12202;52.136;5.592;2023-03-30T15:02:00;24.77;;;4.82;;
23988;SDS011;12202;52.136;5.592;2023-03-30T15:04:28;38.78;;;6.18;;
23988;SDS011;12202;52.136;5.592;2023-03-30T15:06:56;35.15;;;5.63;;
23988;SDS011;12202;52.136;5.592;2023-03-30T15:09:23;25.60;;;5.13;;
23988;SDS011;12202;52.136;5.592;2023-03-30T15:11:51;34.60;;;4.85;;
23988;SDS011;12202;52.136;5.592;2023-03-30T15:14:21;40.28;;;5.93;;
23988;SDS011;12202;52.136;5.592;2023-03-30T15:16:48;36.63;;;5.38;;
23988;SDS011;12202;52.136;5.592;2023-03-30T15:21:57;36.42;;;5.88;;
23988;SDS011;12202;52.136;5.592;2023-03-30T15:24:25;29.58;;;4.30;;
23988;SDS011;12202;52.136;5.592;2023-03-30T15:27:10;22.67;;;3.95;;
23988;SDS011;12202;52.136;5.592;2023-03-30T15:29:39;28.35;;;5.10;;
23988;SDS011;12202;52.136;5.592;2023-03-30T15:32:18;24.67;;;3.92;;
23988;SDS011;12202;52.136;5.592;2023-03-30T15:34:56;27.10;;;5.28;;
23988;SDS011;12202;52.136;5.592;2023-03-30T15:37:29;27.92;;;4.47;;
23988;SDS011;12202;52.136;5.592;2023-03-30T15:39:55;26.00;;;4.35;;
23988;SDS011;12202;52.136;5.592;2023-03-30T15:42:27;30.48;;;4.38;;
23988;SDS011;12202;52.136;5.592;2023-03-30T15:45:01;30.27;;;5.32;;
23988;SDS011;12202;52.136;5.592;2023-03-30T15:47:27;29.33;;;5.50;;
23988;SDS011;12202;52.136;5.592;2023-03-30T15:49:54;26.55;;;4.38;;
23988;SDS011;12202;52.136;5.592;2023-03-30T15:52:21;30.88;;;5.55;;
23988;SDS011;12202;52.136;5.592;2023-03-30T15:54:48;33.00;;;5.25;;
23988;SDS011;12202;52.136;5.592;2023-03-30T15:57:20;32.78;;;5.20;;
23988;SDS011;12202;52.136;5.592;2023-03-30T15:59:53;32.08;;;5.40;;
23988;SDS011;12202;52.136;5.592;2023-03-30T16:04:59;39.67;;;5.55;;
23988;SDS011;12202;52.136;5.592;2023-03-30T16:07:25;32.83;;;4.50;;
23988;SDS011;12202;52.136;5.592;2023-03-30T16:09:53;29.20;;;5.13;;
23988;SDS011;12202;52.136;5.592;2023-03-30T16:12:28;20.30;;;4.93;;
23988;SDS011;12202;52.136;5.592;2023-03-30T16:14:56;29.85;;;4.90;;
23988;SDS011;12202;52.136;5.592;2023-03-30T16:17:22;32.50;;;4.53;;
23988;SDS011;12202;52.136;5.592;2023-03-30T16:19:48;27.42;;;4.65;;
23988;SDS011;12202;52.136;5.592;2023-03-30T16:22:14;24.23;;;4.55;;
23988;SDS011;12202;52.136;5.592;2023-03-30T16:24:41;32.42;;;4.88;;
23988;SDS011;12202;52.136;5.592;2023-03-30T16:27:08;24.55;;;3.97;;
23988;SDS011;12202;52.136;5.592;2023-03-30T16:29:35;24.40;;;4.32;;
23988;SDS011;12202;52.136;5.592;2023-03-30T16:32:01;31.13;;;5.18;;
23988;SDS011;12202;52.136;5.592;2023-03-30T16:34:28;21.75;;;3.92;;
23988;SDS011;12202;52.136;5.592;2023-03-30T16:36:54;23.85;;;4.68;;
23988;SDS011;12202;52.136;5.592;2023-03-30T16:39:27;19.40;;;4.47;;
23988;SDS011;12202;52.136;5.592;2023-03-30T16:42:04;17.85;;;3.45;;
23988;SDS011;12202;52.136;5.592;2023-03-30T16:44:30;23.27;;;3.85;;
23988;SDS011;12202;52.136;5.592;2023-03-30T16:46:56;26.30;;;3.65;;
23988;SDS011;12202;52.136;5.592;2023-03-30T16:49:24;21.33;;;3.53;;
23988;SDS011;12202;52.136;5.592;2023-03-30T16:51:51;20.02;;;3.42;;
23988;SDS011;12202;52.136;5.592;2023-03-30T16:54:17;21.38;;;4.00;;
23988;SDS011;12202;52.136;5.592;2023-03-30T16:56:43;23.75;;;3.72;;
23988;SDS011;12202;52.136;5.592;2023-03-30T16:59:18;38.00;;;4.75;;
23988;SDS011;12202;52.136;5.592;2023-03-30T17:01:45;28.45;;;4.22;;
23988;SDS011;12202;52.136;5.592;2023-03-30T17:04:11;33.70;;;5.45;;
23988;SDS011;12202;52.136;5.592;2023-03-30T17:06:40;35.42;;;5.75;;
23988;SDS011;12202;52.136;5.592;2023-03-30T17:09:12;34.50;;;4.97;;
23988;SDS011;12202;52.136;5.592;2023-03-30T17:11:39;25.05;;;5.38;;
23988;SDS011;12202;52.136;5.592;2023-03-30T17:14:05;37.83;;;5.88;;
23988;SDS011;12202;52.136;5.592;2023-03-30T17:16:31;32.97;;;5.15;;
23988;SDS011;12202;52.136;5.592;2023-03-30T17:18:58;38.10;;;5.55;;
23988;SDS011;12202;52.136;5.592;2023-03-30T17:21:24;24.23;;;4.30;;
23988;SDS011;12202;52.136;5.592;2023-03-30T17:23:50;22.35;;;4.43;;
23988;SDS011;12202;52.136;5.592;2023-03-30T17:26:16;37.10;;;5.40;;
23988;SDS011;12202;52.136;5.592;2023-03-30T17:28:42;30.35;;;4.80;;
23988;SDS011;12202;52.136;5.592;2023-03-30T17:31:15;36.35;;;5.40;;
23988;SDS011;12202;52.136;5.592;2023-03-30T17:33:42;26.92;;;3.80;;
23988;SDS011;12202;52.136;5.592;2023-03-30T17:36:18;38.10;;;6.35;;
23988;SDS011;12202;52.136;5.592;2023-03-30T17:38:45;30.33;;;4.90;;
23988;SDS011;12202;52.136;5.592;2023-03-30T17:41:11;28.73;;;4.18;;